sensor_id;sensor_type;location;lat;lon;timestamp;P1;durP1;ratioP1;P2;durP2;ratioP2
54823;SDS011;40724;53.196;5.980;2022-12-07T00:01:37;5.10;;;1.60;;
54823;SDS011;40724;53.196;5.980;2022-12-07T00:04:04;2.38;;;1.27;;
54823;SDS011;40724;53.196;5.980;2022-12-07T00:06:52;5.75;;;1.35;;
54823;SDS011;40724;53.196;5.980;2022-12-07T00:09:17;10.35;;;2.03;;
54823;SDS011;40724;53.196;5.980;2022-12-07T00:11:44;2.70;;;1.17;;
54823;SDS011;40724;53.196;5.980;2022-12-07T00:14:11;3.88;;;1.38;;
54823;SDS011;40724;53.196;5.980;2022-12-07T00:16:38;5.13;;;1.27;;
54823;SDS011;40724;53.196;5.980;2022-12-07T00:19:04;7.30;;;1.80;;
54823;SDS011;40724;53.196;5.980;2022-12-07T00:21:31;9.27;;;1.73;;
54823;SDS011;40724;53.196;5.980;2022-12-07T00:23:58;6.00;;;1.17;;
54823;SDS011;40724;53.196;5.980;2022-12-07T00:26:26;13.48;;;2.28;;
54823;SDS011;40724;53.196;5.980;2022-12-07T00:28:53;6.13;;;1.40;;
54823;SDS011;40724;53.196;5.980;2022-12-07T00:31:21;5.82;;;1.77;;
54823;SDS011;40724;53.196;5.980;2022-12-07T00:33:47;4.80;;;1.20;;
54823;SDS011;40724;53.196;5.980;2022-12-07T00:36:14;5.30;;;1.95;;
54823;SDS011;40724;53.196;5.980;2022-12-07T00:38:41;4.45;;;1.70;;
54823;SDS011;40724;53.196;5.980;2022-12-07T00:41:11;6.55;;;1.70;;
54823;SDS011;40724;53.196;5.980;2022-12-07T00:43:38;7.18;;;2.22;;
54823;SDS011;40724;53.196;5.980;2022-12-07T00:46:04;5.32;;;2.17;;
54823;SDS011;40724;53.196;5.980;2022-12-07T00:48:30;4.03;;;1.48;;
54823;SDS011;40724;53.196;5.980;2022-12-07T00:50:56;8.73;;;2.60;;
54823;SDS011;40724;53.196;5.980;2022-12-07T00:53:23;12.07;;;2.08;;
54823;SDS011;40724;53.196;5.980;2022-12-07T00:55:49;6.47;;;1.65;;
54823;SDS011;40724;53.196;5.980;2022-12-07T00:58:15;3.67;;;1.33;;
54823;SDS011;40724;53.196;5.980;2022-12-07T01:00:42;4.15;;;1.98;;
54823;SDS011;40724;53.196;5.980;2022-12-07T01:03:09;5.90;;;1.95;;
54823;SDS011;40724;53.196;5.980;2022-12-07T01:05:36;11.90;;;2.63;;
54823;SDS011;40724;53.196;5.980;2022-12-07T01:08:02;13.98;;;2.03;;
54823;SDS011;40724;53.196;5.980;2022-12-07T01:10:29;3.92;;;1.45;;
54823;SDS011;40724;53.196;5.980;2022-12-07T01:12:56;9.68;;;2.10;;
54823;SDS011;40724;53.196;5.980;2022-12-07T01:15:23;5.00;;;1.45;;
54823;SDS011;40724;53.196;5.980;2022-12-07T01:17:49;8.73;;;2.55;;
54823;SDS011;40724;53.196;5.980;2022-12-07T01:20:16;7.00;;;1.70;;
54823;SDS011;40724;53.196;5.980;2022-12-07T01:22:43;5.25;;;2.08;;
54823;SDS011;40724;53.196;5.980;2022-12-07T01:25:10;7.13;;;1.90;;
54823;SDS011;40724;53.196;5.980;2022-12-07T01:27:37;4.82;;;2.30;;
54823;SDS011;40724;53.196;5.980;2022-12-07T01:30:06;5.28;;;1.92;;
54823;SDS011;40724;53.196;5.980;2022-12-07T01:32:33;5.63;;;1.55;;
54823;SDS011;40724;53.196;5.980;2022-12-07T01:34:59;5.13;;;1.63;;
54823;SDS011;40724;53.196;5.980;2022-12-07T01:37:25;4.18;;;1.45;;
54823;SDS011;40724;53.196;5.980;2022-12-07T01:39:51;6.45;;;1.42;;
54823;SDS011;40724;53.196;5.980;2022-12-07T01:42:17;2.85;;;1.23;;
54823;SDS011;40724;53.196;5.980;2022-12-07T01:47:28;4.53;;;1.45;;
54823;SDS011;40724;53.196;5.980;2022-12-07T01:49:54;4.00;;;1.20;;
54823;SDS011;40724;53.196;5.980;2022-12-07T01:52:25;11.32;;;2.00;;
54823;SDS011;40724;53.196;5.980;2022-12-07T01:54:53;3.03;;;1.02;;
54823;SDS011;40724;53.196;5.980;2022-12-07T01:57:20;4.40;;;1.23;;
54823;SDS011;40724;53.196;5.980;2022-12-07T01:59:47;6.35;;;1.40;;
54823;SDS011;40724;53.196;5.980;2022-12-07T02:02:19;4.97;;;1.63;;
54823;SDS011;40724;53.196;5.980;2022-12-07T02:04:45;9.50;;;1.55;;
54823;SDS011;40724;53.196;5.980;2022-12-07T02:07:11;2.92;;;1.25;;
54823;SDS011;40724;53.196;5.980;2022-12-07T02:09:38;4.55;;;1.50;;
54823;SDS011;40724;53.196;5.980;2022-12-07T02:12:04;4.13;;;1.10;;
54823;SDS011;40724;53.196;5.980;2022-12-07T02:14:30;4.75;;;1.92;;
54823;SDS011;40724;53.196;5.980;2022-12-07T02:22:01;8.57;;;1.30;;
54823;SDS011;40724;53.196;5.980;2022-12-07T02:30:19;7.25;;;2.20;;
54823;SDS011;40724;53.196;5.980;2022-12-07T02:33:00;3.88;;;1.60;;
54823;SDS011;40724;53.196;5.980;2022-12-07T02:35:36;6.82;;;2.00;;
54823;SDS011;40724;53.196;5.980;2022-12-07T02:38:11;18.60;;;3.38;;
54823;SDS011;40724;53.196;5.980;2022-12-07T02:40:43;6.55;;;1.90;;
54823;SDS011;40724;53.196;5.980;2022-12-07T02:45:38;10.35;;;2.05;;
54823;SDS011;40724;53.196;5.980;2022-12-07T02:48:06;7.55;;;1.90;;
54823;SDS011;40724;53.196;5.980;2022-12-07T02:50:33;3.72;;;1.10;;
54823;SDS011;40724;53.196;5.980;2022-12-07T02:52:59;2.40;;;1.13;;
54823;SDS011;40724;53.196;5.980;2022-12-07T02:55:28;6.43;;;1.08;;
54823;SDS011;40724;53.196;5.980;2022-12-07T02:58:03;6.50;;;1.20;;
54823;SDS011;40724;53.196;5.980;2022-12-07T03:00:33;3.10;;;1.40;;
54823;SDS011;40724;53.196;5.980;2022-12-07T03:03:06;4.45;;;1.50;;
54823;SDS011;40724;53.196;5.980;2022-12-07T03:13:22;5.22;;;1.60;;
54823;SDS011;40724;53.196;5.980;2022-12-07T03:15:57;6.20;;;1.60;;
54823;SDS011;40724;53.196;5.980;2022-12-07T03:18:25;9.73;;;2.15;;
54823;SDS011;40724;53.196;5.980;2022-12-07T03:20:54;3.65;;;1.50;;
54823;SDS011;40724;53.196;5.980;2022-12-07T03:23:22;4.55;;;1.63;;
54823;SDS011;40724;53.196;5.980;2022-12-07T03:25:50;3.38;;;1.77;;
54823;SDS011;40724;53.196;5.980;2022-12-07T03:28:18;5.38;;;1.77;;
54823;SDS011;40724;53.196;5.980;2022-12-07T03:30:57;3.72;;;1.80;;
54823;SDS011;40724;53.196;5.980;2022-12-07T03:33:30;8.25;;;2.20;;
54823;SDS011;40724;53.196;5.980;2022-12-07T03:36:01;10.88;;;2.20;;
54823;SDS011;40724;53.196;5.980;2022-12-07T03:41:29;3.58;;;1.45;;
54823;SDS011;40724;53.196;5.980;2022-12-07T03:43:59;4.93;;;1.60;;
54823;SDS011;40724;53.196;5.980;2022-12-07T03:51:47;4.70;;;1.60;;
54823;SDS011;40724;53.196;5.980;2022-12-07T03:56:42;5.30;;;1.67;;
54823;SDS011;40724;53.196;5.980;2022-12-07T03:59:09;9.10;;;1.75;;
54823;SDS011;40724;53.196;5.980;2022-12-07T04:01:37;7.55;;;1.63;;
54823;SDS011;40724;53.196;5.980;2022-12-07T04:04:03;9.80;;;2.05;;
54823;SDS011;40724;53.196;5.980;2022-12-07T04:06:29;4.90;;;1.98;;
54823;SDS011;40724;53.196;5.980;2022-12-07T04:08:55;7.40;;;1.88;;
54823;SDS011;40724;53.196;5.980;2022-12-07T04:11:21;8.27;;;2.05;;
54823;SDS011;40724;53.196;5.980;2022-12-07T04:13:47;6.78;;;1.77;;
54823;SDS011;40724;53.196;5.980;2022-12-07T04:16:32;7.82;;;2.22;;
54823;SDS011;40724;53.196;5.980;2022-12-07T04:18:58;8.85;;;1.67;;
54823;SDS011;40724;53.196;5.980;2022-12-07T04:21:24;3.65;;;1.40;;
54823;SDS011;40724;53.196;5.980;2022-12-07T04:23:50;5.97;;;1.65;;
54823;SDS011;40724;53.196;5.980;2022-12-07T04:26:16;6.50;;;1.92;;
54823;SDS011;40724;53.196;5.980;2022-12-07T04:28:42;6.43;;;1.55;;
54823;SDS011;40724;53.196;5.980;2022-12-07T04:31:09;3.55;;;1.30;;
54823;SDS011;40724;53.196;5.980;2022-12-07T04:33:35;9.40;;;1.52;;
54823;SDS011;40724;53.196;5.980;2022-12-07T04:36:01;4.28;;;1.20;;
54823;SDS011;40724;53.196;5.980;2022-12-07T04:38:27;7.57;;;1.20;;
54823;SDS011;40724;53.196;5.980;2022-12-07T04:40:54;7.28;;;1.98;;
54823;SDS011;40724;53.196;5.980;2022-12-07T04:43:20;4.60;;;1.35;;
54823;SDS011;40724;53.196;5.980;2022-12-07T04:45:49;7.53;;;1.50;;
54823;SDS011;40724;53.196;5.980;2022-12-07T04:48:16;2.03;;;0.80;;
54823;SDS011;40724;53.196;5.980;2022-12-07T04:50:42;4.18;;;1.25;;
54823;SDS011;40724;53.196;5.980;2022-12-07T04:53:08;4.10;;;1.40;;
54823;SDS011;40724;53.196;5.980;2022-12-07T04:55:34;7.35;;;1.50;;
54823;SDS011;40724;53.196;5.980;2022-12-07T04:58:00;7.68;;;1.92;;
54823;SDS011;40724;53.196;5.980;2022-12-07T05:00:26;7.38;;;1.65;;
54823;SDS011;40724;53.196;5.980;2022-12-07T05:02:52;7.78;;;1.95;;
54823;SDS011;40724;53.196;5.980;2022-12-07T05:05:18;6.00;;;1.60;;
54823;SDS011;40724;53.196;5.980;2022-12-07T05:07:45;11.30;;;2.30;;
54823;SDS011;40724;53.196;5.980;2022-12-07T05:10:11;6.03;;;1.52;;
54823;SDS011;40724;53.196;5.980;2022-12-07T05:12:37;7.80;;;2.45;;
54823;SDS011;40724;53.196;5.980;2022-12-07T05:15:03;4.88;;;1.73;;
54823;SDS011;40724;53.196;5.980;2022-12-07T05:17:30;9.50;;;2.30;;
54823;SDS011;40724;53.196;5.980;2022-12-07T05:19:56;3.60;;;1.65;;
54823;SDS011;40724;53.196;5.980;2022-12-07T05:22:22;10.07;;;2.13;;
54823;SDS011;40724;53.196;5.980;2022-12-07T05:24:50;7.07;;;1.80;;
54823;SDS011;40724;53.196;5.980;2022-12-07T05:27:16;8.18;;;2.92;;
54823;SDS011;40724;53.196;5.980;2022-12-07T05:29:42;6.60;;;2.63;;
54823;SDS011;40724;53.196;5.980;2022-12-07T05:32:08;9.30;;;2.20;;
54823;SDS011;40724;53.196;5.980;2022-12-07T05:34:34;7.72;;;1.58;;
54823;SDS011;40724;53.196;5.980;2022-12-07T05:37:01;4.32;;;1.67;;
54823;SDS011;40724;53.196;5.980;2022-12-07T05:39:27;6.05;;;1.27;;
54823;SDS011;40724;53.196;5.980;2022-12-07T05:41:53;3.30;;;1.25;;
54823;SDS011;40724;53.196;5.980;2022-12-07T05:44:37;2.78;;;0.90;;
54823;SDS011;40724;53.196;5.980;2022-12-07T05:47:04;8.35;;;2.35;;
54823;SDS011;40724;53.196;5.980;2022-12-07T05:49:30;2.72;;;0.98;;
54823;SDS011;40724;53.196;5.980;2022-12-07T05:51:57;4.80;;;1.52;;
54823;SDS011;40724;53.196;5.980;2022-12-07T05:54:23;4.68;;;1.30;;
54823;SDS011;40724;53.196;5.980;2022-12-07T05:56:49;3.95;;;1.23;;
54823;SDS011;40724;53.196;5.980;2022-12-07T05:59:15;1.60;;;0.80;;
54823;SDS011;40724;53.196;5.980;2022-12-07T06:01:54;3.25;;;1.13;;
54823;SDS011;40724;53.196;5.980;2022-12-07T06:04:21;6.22;;;1.35;;
54823;SDS011;40724;53.196;5.980;2022-12-07T06:06:48;5.18;;;1.70;;
54823;SDS011;40724;53.196;5.980;2022-12-07T06:09:14;8.57;;;2.15;;
54823;SDS011;40724;53.196;5.980;2022-12-07T06:11:40;6.43;;;2.30;;
54823;SDS011;40724;53.196;5.980;2022-12-07T06:14:25;4.55;;;1.67;;
54823;SDS011;40724;53.196;5.980;2022-12-07T06:16:51;15.50;;;3.03;;
54823;SDS011;40724;53.196;5.980;2022-12-07T06:19:17;4.32;;;1.75;;
54823;SDS011;40724;53.196;5.980;2022-12-07T06:21:44;4.72;;;1.63;;
54823;SDS011;40724;53.196;5.980;2022-12-07T06:24:10;6.20;;;2.03;;
54823;SDS011;40724;53.196;5.980;2022-12-07T06:26:37;8.77;;;1.80;;
54823;SDS011;40724;53.196;5.980;2022-12-07T06:29:03;7.53;;;1.83;;
54823;SDS011;40724;53.196;5.980;2022-12-07T06:31:29;7.68;;;2.33;;
54823;SDS011;40724;53.196;5.980;2022-12-07T06:33:59;6.93;;;2.55;;
54823;SDS011;40724;53.196;5.980;2022-12-07T06:36:25;8.35;;;1.90;;
54823;SDS011;40724;53.196;5.980;2022-12-07T06:38:51;7.32;;;2.33;;
54823;SDS011;40724;53.196;5.980;2022-12-07T06:41:18;7.53;;;2.80;;
54823;SDS011;40724;53.196;5.980;2022-12-07T06:43:44;8.27;;;1.85;;
54823;SDS011;40724;53.196;5.980;2022-12-07T06:46:10;6.68;;;1.77;;
54823;SDS011;40724;53.196;5.980;2022-12-07T06:48:36;8.80;;;2.85;;
54823;SDS011;40724;53.196;5.980;2022-12-07T06:51:02;12.38;;;3.65;;
54823;SDS011;40724;53.196;5.980;2022-12-07T06:53:28;8.13;;;2.40;;
54823;SDS011;40724;53.196;5.980;2022-12-07T06:55:54;5.90;;;2.45;;
54823;SDS011;40724;53.196;5.980;2022-12-07T06:58:21;12.55;;;3.63;;
54823;SDS011;40724;53.196;5.980;2022-12-07T07:00:48;5.05;;;2.08;;
54823;SDS011;40724;53.196;5.980;2022-12-07T07:03:15;10.35;;;2.25;;
54823;SDS011;40724;53.196;5.980;2022-12-07T07:05:41;7.68;;;3.03;;
54823;SDS011;40724;53.196;5.980;2022-12-07T07:08:07;9.30;;;2.72;;
54823;SDS011;40724;53.196;5.980;2022-12-07T07:10:33;5.18;;;1.95;;
54823;SDS011;40724;53.196;5.980;2022-12-07T07:13:00;6.07;;;2.10;;
54823;SDS011;40724;53.196;5.980;2022-12-07T07:15:26;8.27;;;3.78;;
54823;SDS011;40724;53.196;5.980;2022-12-07T07:17:52;6.95;;;3.33;;
54823;SDS011;40724;53.196;5.980;2022-12-07T07:20:18;17.05;;;4.25;;
54823;SDS011;40724;53.196;5.980;2022-12-07T07:22:44;9.73;;;3.78;;
54823;SDS011;40724;53.196;5.980;2022-12-07T07:25:11;8.45;;;2.90;;
54823;SDS011;40724;53.196;5.980;2022-12-07T07:27:37;7.40;;;2.85;;
54823;SDS011;40724;53.196;5.980;2022-12-07T07:30:03;13.50;;;3.47;;
54823;SDS011;40724;53.196;5.980;2022-12-07T07:32:30;6.78;;;3.03;;
54823;SDS011;40724;53.196;5.980;2022-12-07T07:34:56;12.40;;;2.97;;
54823;SDS011;40724;53.196;5.980;2022-12-07T07:37:22;7.43;;;3.53;;
54823;SDS011;40724;53.196;5.980;2022-12-07T07:39:48;6.38;;;2.80;;
54823;SDS011;40724;53.196;5.980;2022-12-07T07:42:14;8.98;;;3.03;;
54823;SDS011;40724;53.196;5.980;2022-12-07T07:44:40;9.75;;;3.13;;
54823;SDS011;40724;53.196;5.980;2022-12-07T07:47:06;12.25;;;2.53;;
54823;SDS011;40724;53.196;5.980;2022-12-07T07:49:33;10.27;;;2.22;;
54823;SDS011;40724;53.196;5.980;2022-12-07T07:51:59;8.95;;;2.47;;
54823;SDS011;40724;53.196;5.980;2022-12-07T07:54:25;6.07;;;3.10;;
54823;SDS011;40724;53.196;5.980;2022-12-07T07:56:52;4.55;;;2.30;;
54823;SDS011;40724;53.196;5.980;2022-12-07T07:59:18;12.48;;;2.28;;
54823;SDS011;40724;53.196;5.980;2022-12-07T08:01:44;9.60;;;2.10;;
54823;SDS011;40724;53.196;5.980;2022-12-07T08:04:10;5.57;;;2.20;;
54823;SDS011;40724;53.196;5.980;2022-12-07T08:06:36;4.45;;;2.03;;
54823;SDS011;40724;53.196;5.980;2022-12-07T08:09:05;7.65;;;2.30;;
54823;SDS011;40724;53.196;5.980;2022-12-07T08:11:31;7.57;;;1.98;;
54823;SDS011;40724;53.196;5.980;2022-12-07T08:13:57;7.80;;;2.75;;
54823;SDS011;40724;53.196;5.980;2022-12-07T08:16:23;4.90;;;2.13;;
54823;SDS011;40724;53.196;5.980;2022-12-07T08:18:50;9.70;;;2.47;;
54823;SDS011;40724;53.196;5.980;2022-12-07T08:21:16;5.22;;;1.92;;
54823;SDS011;40724;53.196;5.980;2022-12-07T08:23:42;4.22;;;1.67;;
54823;SDS011;40724;53.196;5.980;2022-12-07T08:26:12;4.80;;;1.88;;
54823;SDS011;40724;53.196;5.980;2022-12-07T08:28:38;10.98;;;1.83;;
54823;SDS011;40724;53.196;5.980;2022-12-07T08:31:06;5.18;;;1.38;;
54823;SDS011;40724;53.196;5.980;2022-12-07T08:33:34;4.32;;;2.35;;
54823;SDS011;40724;53.196;5.980;2022-12-07T08:36:04;9.98;;;1.88;;
54823;SDS011;40724;53.196;5.980;2022-12-07T08:38:31;6.88;;;1.98;;
54823;SDS011;40724;53.196;5.980;2022-12-07T08:40:57;9.02;;;2.17;;
54823;SDS011;40724;53.196;5.980;2022-12-07T08:43:24;9.25;;;3.30;;
54823;SDS011;40724;53.196;5.980;2022-12-07T08:45:55;4.78;;;1.60;;
54823;SDS011;40724;53.196;5.980;2022-12-07T08:48:23;5.85;;;1.95;;
54823;SDS011;40724;53.196;5.980;2022-12-07T08:50:50;4.97;;;1.58;;
54823;SDS011;40724;53.196;5.980;2022-12-07T08:53:16;4.53;;;1.50;;
54823;SDS011;40724;53.196;5.980;2022-12-07T08:55:43;5.70;;;2.47;;
54823;SDS011;40724;53.196;5.980;2022-12-07T08:58:09;9.77;;;2.28;;
54823;SDS011;40724;53.196;5.980;2022-12-07T09:00:36;4.53;;;2.08;;
54823;SDS011;40724;53.196;5.980;2022-12-07T09:03:02;8.00;;;2.38;;
54823;SDS011;40724;53.196;5.980;2022-12-07T09:05:28;7.47;;;2.13;;
54823;SDS011;40724;53.196;5.980;2022-12-07T09:07:55;6.90;;;2.05;;
54823;SDS011;40724;53.196;5.980;2022-12-07T09:10:22;5.40;;;1.85;;
54823;SDS011;40724;53.196;5.980;2022-12-07T09:12:48;6.20;;;1.60;;
54823;SDS011;40724;53.196;5.980;2022-12-07T09:15:14;7.75;;;2.25;;
54823;SDS011;40724;53.196;5.980;2022-12-07T09:17:40;9.32;;;1.85;;
54823;SDS011;40724;53.196;5.980;2022-12-07T09:20:06;2.72;;;1.42;;
54823;SDS011;40724;53.196;5.980;2022-12-07T09:22:33;5.38;;;2.40;;
54823;SDS011;40724;53.196;5.980;2022-12-07T09:24:59;6.60;;;2.25;;
54823;SDS011;40724;53.196;5.980;2022-12-07T09:27:25;8.52;;;2.00;;
54823;SDS011;40724;53.196;5.980;2022-12-07T09:29:52;11.55;;;3.25;;
54823;SDS011;40724;53.196;5.980;2022-12-07T09:32:18;9.25;;;2.33;;
54823;SDS011;40724;53.196;5.980;2022-12-07T09:34:44;19.73;;;3.63;;
54823;SDS011;40724;53.196;5.980;2022-12-07T09:37:10;8.73;;;2.47;;
54823;SDS011;40724;53.196;5.980;2022-12-07T09:39:40;6.35;;;2.83;;
54823;SDS011;40724;53.196;5.980;2022-12-07T09:42:06;9.10;;;2.97;;
54823;SDS011;40724;53.196;5.980;2022-12-07T09:44:33;10.25;;;2.78;;
54823;SDS011;40724;53.196;5.980;2022-12-07T09:47:00;10.88;;;2.20;;
54823;SDS011;40724;53.196;5.980;2022-12-07T09:49:30;8.60;;;2.47;;
54823;SDS011;40724;53.196;5.980;2022-12-07T09:52:16;10.45;;;2.55;;
54823;SDS011;40724;53.196;5.980;2022-12-07T09:54:45;5.50;;;2.08;;
54823;SDS011;40724;53.196;5.980;2022-12-07T09:57:12;8.23;;;2.10;;
54823;SDS011;40724;53.196;5.980;2022-12-07T09:59:38;6.20;;;1.77;;
54823;SDS011;40724;53.196;5.980;2022-12-07T10:02:25;4.93;;;1.83;;
54823;SDS011;40724;53.196;5.980;2022-12-07T10:04:52;5.07;;;1.63;;
54823;SDS011;40724;53.196;5.980;2022-12-07T10:07:19;5.63;;;2.05;;
54823;SDS011;40724;53.196;5.980;2022-12-07T10:09:45;8.05;;;2.20;;
54823;SDS011;40724;53.196;5.980;2022-12-07T10:12:11;4.18;;;1.52;;
54823;SDS011;40724;53.196;5.980;2022-12-07T10:14:39;5.07;;;2.17;;
54823;SDS011;40724;53.196;5.980;2022-12-07T10:19:51;7.40;;;1.92;;
54823;SDS011;40724;53.196;5.980;2022-12-07T10:22:17;4.40;;;1.55;;
54823;SDS011;40724;53.196;5.980;2022-12-07T10:24:45;4.18;;;1.88;;
54823;SDS011;40724;53.196;5.980;2022-12-07T10:27:22;5.88;;;1.70;;
54823;SDS011;40724;53.196;5.980;2022-12-07T10:29:52;3.72;;;2.33;;
54823;SDS011;40724;53.196;5.980;2022-12-07T10:34:45;7.10;;;0.90;;
54823;SDS011;40724;53.196;5.980;2022-12-07T10:39:45;1.45;;;0.60;;
54823;SDS011;40724;53.196;5.980;2022-12-07T10:44:43;1.25;;;0.90;;
54823;SDS011;40724;53.196;5.980;2022-12-07T10:49:52;2.60;;;0.77;;
54823;SDS011;40724;53.196;5.980;2022-12-07T10:57:45;1.95;;;0.70;;
54823;SDS011;40724;53.196;5.980;2022-12-07T11:05:21;0.82;;;0.73;;
54823;SDS011;40724;53.196;5.980;2022-12-07T11:21:40;1.63;;;0.55;;
54823;SDS011;40724;53.196;5.980;2022-12-07T11:26:54;3.97;;;1.05;;
54823;SDS011;40724;53.196;5.980;2022-12-07T11:33:11;4.63;;;1.15;;
54823;SDS011;40724;53.196;5.980;2022-12-07T11:37:35;7.07;;;1.52;;
54823;SDS011;40724;53.196;5.980;2022-12-07T11:40:04;4.97;;;1.40;;
54823;SDS011;40724;53.196;5.980;2022-12-07T11:42:33;2.70;;;1.00;;
54823;SDS011;40724;53.196;5.980;2022-12-07T11:45:03;2.97;;;1.63;;
54823;SDS011;40724;53.196;5.980;2022-12-07T11:47:45;5.70;;;1.73;;
54823;SDS011;40724;53.196;5.980;2022-12-07T11:52:58;3.65;;;1.50;;
54823;SDS011;40724;53.196;5.980;2022-12-07T11:58:04;5.32;;;1.40;;
54823;SDS011;40724;53.196;5.980;2022-12-07T12:00:34;3.60;;;1.38;;
54823;SDS011;40724;53.196;5.980;2022-12-07T12:03:08;3.20;;;1.30;;
54823;SDS011;40724;53.196;5.980;2022-12-07T12:05:35;4.03;;;1.00;;
54823;SDS011;40724;53.196;5.980;2022-12-07T12:08:15;2.78;;;0.73;;
54823;SDS011;40724;53.196;5.980;2022-12-07T12:13:23;3.83;;;1.15;;
54823;SDS011;40724;53.196;5.980;2022-12-07T12:18:44;3.40;;;1.02;;
54823;SDS011;40724;53.196;5.980;2022-12-07T12:21:17;3.22;;;1.38;;
54823;SDS011;40724;53.196;5.980;2022-12-07T12:23:46;4.38;;;1.30;;
54823;SDS011;40724;53.196;5.980;2022-12-07T12:26:24;2.38;;;1.17;;
54823;SDS011;40724;53.196;5.980;2022-12-07T12:29:16;3.88;;;1.27;;
54823;SDS011;40724;53.196;5.980;2022-12-07T12:31:46;4.22;;;1.70;;
54823;SDS011;40724;53.196;5.980;2022-12-07T12:35:00;4.20;;;1.40;;
54823;SDS011;40724;53.196;5.980;2022-12-07T12:36:59;2.67;;;1.42;;
54823;SDS011;40724;53.196;5.980;2022-12-07T12:39:26;3.35;;;1.42;;
54823;SDS011;40724;53.196;5.980;2022-12-07T12:41:53;4.45;;;1.70;;
54823;SDS011;40724;53.196;5.980;2022-12-07T12:46:50;5.38;;;1.05;;
54823;SDS011;40724;53.196;5.980;2022-12-07T12:51:49;5.15;;;1.67;;
54823;SDS011;40724;53.196;5.980;2022-12-07T12:54:23;2.20;;;1.05;;
54823;SDS011;40724;53.196;5.980;2022-12-07T12:59:32;5.07;;;1.52;;
54823;SDS011;40724;53.196;5.980;2022-12-07T13:02:15;2.17;;;1.10;;
54823;SDS011;40724;53.196;5.980;2022-12-07T13:04:55;2.92;;;1.10;;
54823;SDS011;40724;53.196;5.980;2022-12-07T13:10:52;3.63;;;1.20;;
54823;SDS011;40724;53.196;5.980;2022-12-07T13:13:00;3.38;;;1.85;;
54823;SDS011;40724;53.196;5.980;2022-12-07T13:18:00;4.83;;;2.03;;
54823;SDS011;40724;53.196;5.980;2022-12-07T13:23:08;5.68;;;1.35;;
54823;SDS011;40724;53.196;5.980;2022-12-07T13:25:41;5.63;;;1.70;;
54823;SDS011;40724;53.196;5.980;2022-12-07T13:28:10;5.10;;;1.35;;
54823;SDS011;40724;53.196;5.980;2022-12-07T13:30:45;2.47;;;1.20;;
54823;SDS011;40724;53.196;5.980;2022-12-07T13:33:12;3.43;;;1.50;;
54823;SDS011;40724;53.196;5.980;2022-12-07T13:35:38;1.65;;;1.02;;
54823;SDS011;40724;53.196;5.980;2022-12-07T13:38:13;3.20;;;1.40;;
54823;SDS011;40724;53.196;5.980;2022-12-07T13:40:40;4.65;;;1.33;;
54823;SDS011;40724;53.196;5.980;2022-12-07T13:43:12;2.88;;;1.33;;
54823;SDS011;40724;53.196;5.980;2022-12-07T13:45:41;5.70;;;1.45;;
54823;SDS011;40724;53.196;5.980;2022-12-07T13:50:39;5.50;;;1.20;;
54823;SDS011;40724;53.196;5.980;2022-12-07T13:53:07;1.38;;;0.80;;
54823;SDS011;40724;53.196;5.980;2022-12-07T13:55:37;2.38;;;1.15;;
54823;SDS011;40724;53.196;5.980;2022-12-07T13:58:09;2.85;;;0.90;;
54823;SDS011;40724;53.196;5.980;2022-12-07T14:00:36;1.70;;;0.80;;
54823;SDS011;40724;53.196;5.980;2022-12-07T14:05:37;2.67;;;1.10;;
54823;SDS011;40724;53.196;5.980;2022-12-07T14:10:40;1.70;;;0.80;;
54823;SDS011;40724;53.196;5.980;2022-12-07T14:15:51;1.27;;;0.68;;
54823;SDS011;40724;53.196;5.980;2022-12-07T14:18:25;1.17;;;0.82;;
54823;SDS011;40724;53.196;5.980;2022-12-07T14:21:02;1.98;;;0.85;;
54823;SDS011;40724;53.196;5.980;2022-12-07T14:23:28;2.30;;;0.70;;
54823;SDS011;40724;53.196;5.980;2022-12-07T14:26:04;2.35;;;0.60;;
54823;SDS011;40724;53.196;5.980;2022-12-07T14:28:31;5.30;;;1.52;;
54823;SDS011;40724;53.196;5.980;2022-12-07T14:30:58;2.00;;;1.05;;
54823;SDS011;40724;53.196;5.980;2022-12-07T14:33:25;2.20;;;0.88;;
54823;SDS011;40724;53.196;5.980;2022-12-07T14:35:51;4.75;;;1.20;;
54823;SDS011;40724;53.196;5.980;2022-12-07T14:38:24;2.42;;;0.77;;
54823;SDS011;40724;53.196;5.980;2022-12-07T14:40:51;4.55;;;1.08;;
54823;SDS011;40724;53.196;5.980;2022-12-07T14:43:17;9.77;;;1.80;;
54823;SDS011;40724;53.196;5.980;2022-12-07T14:45:44;4.80;;;1.13;;
54823;SDS011;40724;53.196;5.980;2022-12-07T14:48:11;4.57;;;1.52;;
54823;SDS011;40724;53.196;5.980;2022-12-07T14:50:38;3.30;;;1.30;;
54823;SDS011;40724;53.196;5.980;2022-12-07T14:53:15;3.08;;;0.93;;
54823;SDS011;40724;53.196;5.980;2022-12-07T14:55:42;3.10;;;1.10;;
54823;SDS011;40724;53.196;5.980;2022-12-07T14:58:12;4.47;;;1.63;;
54823;SDS011;40724;53.196;5.980;2022-12-07T15:00:39;3.55;;;1.35;;
54823;SDS011;40724;53.196;5.980;2022-12-07T15:03:05;4.68;;;1.75;;
54823;SDS011;40724;53.196;5.980;2022-12-07T15:05:32;3.75;;;1.33;;
54823;SDS011;40724;53.196;5.980;2022-12-07T15:07:58;3.78;;;1.23;;
54823;SDS011;40724;53.196;5.980;2022-12-07T15:10:26;5.28;;;1.42;;
54823;SDS011;40724;53.196;5.980;2022-12-07T15:12:55;4.28;;;1.35;;
54823;SDS011;40724;53.196;5.980;2022-12-07T15:15:41;4.03;;;1.77;;
54823;SDS011;40724;53.196;5.980;2022-12-07T15:18:07;4.53;;;1.38;;
54823;SDS011;40724;53.196;5.980;2022-12-07T15:20:33;2.72;;;1.48;;
54823;SDS011;40724;53.196;5.980;2022-12-07T15:22:59;4.10;;;1.00;;
54823;SDS011;40724;53.196;5.980;2022-12-07T15:25:25;2.70;;;1.13;;
54823;SDS011;40724;53.196;5.980;2022-12-07T15:27:52;3.60;;;1.23;;
54823;SDS011;40724;53.196;5.980;2022-12-07T15:30:18;3.95;;;1.27;;
54823;SDS011;40724;53.196;5.980;2022-12-07T15:32:48;4.93;;;1.25;;
54823;SDS011;40724;53.196;5.980;2022-12-07T15:35:14;3.67;;;1.00;;
54823;SDS011;40724;53.196;5.980;2022-12-07T15:37:40;2.28;;;0.90;;
54823;SDS011;40724;53.196;5.980;2022-12-07T15:40:07;4.18;;;1.00;;
54823;SDS011;40724;53.196;5.980;2022-12-07T15:42:33;3.10;;;0.70;;
54823;SDS011;40724;53.196;5.980;2022-12-07T15:44:59;2.70;;;0.88;;
54823;SDS011;40724;53.196;5.980;2022-12-07T15:47:28;4.22;;;0.88;;
54823;SDS011;40724;53.196;5.980;2022-12-07T15:49:54;4.18;;;1.10;;
54823;SDS011;40724;53.196;5.980;2022-12-07T15:52:21;2.72;;;0.70;;
54823;SDS011;40724;53.196;5.980;2022-12-07T15:54:47;1.85;;;0.70;;
54823;SDS011;40724;53.196;5.980;2022-12-07T15:57:13;2.50;;;0.88;;
54823;SDS011;40724;53.196;5.980;2022-12-07T15:59:39;2.80;;;0.80;;
54823;SDS011;40724;53.196;5.980;2022-12-07T16:02:05;1.92;;;1.25;;
54823;SDS011;40724;53.196;5.980;2022-12-07T16:04:31;1.80;;;0.90;;
54823;SDS011;40724;53.196;5.980;2022-12-07T16:06:57;1.63;;;0.73;;
54823;SDS011;40724;53.196;5.980;2022-12-07T16:09:23;2.67;;;0.85;;
54823;SDS011;40724;53.196;5.980;2022-12-07T16:11:50;3.10;;;1.23;;
54823;SDS011;40724;53.196;5.980;2022-12-07T16:14:17;2.92;;;1.27;;
54823;SDS011;40724;53.196;5.980;2022-12-07T16:16:43;3.17;;;0.77;;
54823;SDS011;40724;53.196;5.980;2022-12-07T16:19:10;2.45;;;1.30;;
54823;SDS011;40724;53.196;5.980;2022-12-07T16:21:36;4.20;;;1.33;;
54823;SDS011;40724;53.196;5.980;2022-12-07T16:24:02;3.00;;;1.45;;
54823;SDS011;40724;53.196;5.980;2022-12-07T16:26:28;2.47;;;1.50;;
54823;SDS011;40724;53.196;5.980;2022-12-07T16:28:55;6.43;;;2.00;;
54823;SDS011;40724;53.196;5.980;2022-12-07T16:31:22;5.05;;;2.20;;
54823;SDS011;40724;53.196;5.980;2022-12-07T16:33:50;5.00;;;1.75;;
54823;SDS011;40724;53.196;5.980;2022-12-07T16:36:18;5.82;;;2.20;;
54823;SDS011;40724;53.196;5.980;2022-12-07T16:38:46;4.55;;;2.40;;
54823;SDS011;40724;53.196;5.980;2022-12-07T16:41:12;2.63;;;1.92;;
54823;SDS011;40724;53.196;5.980;2022-12-07T16:43:38;3.28;;;1.67;;
54823;SDS011;40724;53.196;5.980;2022-12-07T16:46:05;4.78;;;1.83;;
54823;SDS011;40724;53.196;5.980;2022-12-07T16:48:31;5.20;;;1.45;;